sensor_id;sensor_type;location;lat;lon;timestamp;temperature;humidity
13682;DHT22;6913;49.892;7.936;2024-01-15T00:00:53;-1.60;99.90
13682;DHT22;6913;49.892;7.936;2024-01-15T00:03:19;-1.60;99.90
13682;DHT22;6913;49.892;7.936;2024-01-15T00:05:46;-1.60;99.90
13682;DHT22;6913;49.892;7.936;2024-01-15T00:08:13;-1.60;99.90
13682;DHT22;6913;49.892;7.936;2024-01-15T00:10:41;-1.60;99.90
13682;DHT22;6913;49.892;7.936;2024-01-15T00:13:09;-1.50;99.90
13682;DHT22;6913;49.892;7.936;2024-01-15T00:15:35;-1.60;99.90
13682;DHT22;6913;49.892;7.936;2024-01-15T00:18:02;-1.50;99.90
13682;DHT22;6913;49.892;7.936;2024-01-15T00:20:29;-1.20;99.90
13682;DHT22;6913;49.892;7.936;2024-01-15T00:22:56;-1.50;99.90
13682;DHT22;6913;49.892;7.936;2024-01-15T00:25:23;-1.50;99.90
13682;DHT22;6913;49.892;7.936;2024-01-15T00:27:51;-1.50;99.90
13682;DHT22;6913;49.892;7.936;2024-01-15T00:30:18;-1.50;99.90
13682;DHT22;6913;49.892;7.936;2024-01-15T00:32:45;-1.50;99.90
13682;DHT22;6913;49.892;7.936;2024-01-15T00:35:12;-1.50;99.90
13682;DHT22;6913;49.892;7.936;2024-01-15T00:37:38;-1.50;99.90
13682;DHT22;6913;49.892;7.936;2024-01-15T00:40:06;-1.50;99.90
13682;DHT22;6913;49.892;7.936;2024-01-15T00:42:34;-1.60;99.90
13682;DHT22;6913;49.892;7.936;2024-01-15T00:45:03;-1.70;99.90
13682;DHT22;6913;49.892;7.936;2024-01-15T00:47:30;-1.60;99.90
13682;DHT22;6913;49.892;7.936;2024-01-15T00:49:57;-1.60;99.90
13682;DHT22;6913;49.892;7.936;2024-01-15T00:52:24;-1.70;99.90
13682;DHT22;6913;49.892;7.936;2024-01-15T00:54:51;-1.70;99.90
13682;DHT22;6913;49.892;7.936;2024-01-15T00:57:17;-1.60;99.90
13682;DHT22;6913;49.892;7.936;2024-01-15T00:59:45;-1.60;99.90
13682;DHT22;6913;49.892;7.936;2024-01-15T01:02:13;-1.60;99.90
13682;DHT22;6913;49.892;7.936;2024-01-15T01:04:40;-1.50;99.90
13682;DHT22;6913;49.892;7.936;2024-01-15T01:07:07;-1.50;99.90
13682;DHT22;6913;49.892;7.936;2024-01-15T01:09:34;-1.50;99.90
13682;DHT22;6913;49.892;7.936;2024-01-15T01:12:00;-1.40;99.90
13682;DHT22;6913;49.892;7.936;2024-01-15T01:14:27;-1.40;99.90
13682;DHT22;6913;49.892;7.936;2024-01-15T01:16:54;-1.40;99.90
13682;DHT22;6913;49.892;7.936;2024-01-15T01:19:22;-1.30;99.90
13682;DHT22;6913;49.892;7.936;2024-01-15T01:21:50;-1.40;99.90
13682;DHT22;6913;49.892;7.936;2024-01-15T01:24:17;-1.40;99.90
13682;DHT22;6913;49.892;7.936;2024-01-15T01:26:44;-1.40;99.90
13682;DHT22;6913;49.892;7.936;2024-01-15T01:29:12;-1.40;99.90
13682;DHT22;6913;49.892;7.936;2024-01-15T01:31:42;-1.30;99.90
13682;DHT22;6913;49.892;7.936;2024-01-15T01:34:09;-1.40;99.90
13682;DHT22;6913;49.892;7.936;2024-01-15T01:36:37;-1.40;99.90
13682;DHT22;6913;49.892;7.936;2024-01-15T01:39:04;-0.90;99.90
13682;DHT22;6913;49.892;7.936;2024-01-15T01:41:31;-1.40;99.90
13682;DHT22;6913;49.892;7.936;2024-01-15T01:43:58;-1.40;99.90
13682;DHT22;6913;49.892;7.936;2024-01-15T01:46:27;-1.40;99.90
13682;DHT22;6913;49.892;7.936;2024-01-15T01:48:54;-1.30;99.90
13682;DHT22;6913;49.892;7.936;2024-01-15T01:51:22;-1.30;99.90
13682;DHT22;6913;49.892;7.936;2024-01-15T01:53:52;-1.40;99.90
13682;DHT22;6913;49.892;7.936;2024-01-15T01:56:19;-1.30;99.90
13682;DHT22;6913;49.892;7.936;2024-01-15T01:58:47;-1.30;99.90
13682;DHT22;6913;49.892;7.936;2024-01-15T02:01:15;-1.30;99.90
13682;DHT22;6913;49.892;7.936;2024-01-15T02:03:43;-1.20;99.90
13682;DHT22;6913;49.892;7.936;2024-01-15T02:06:10;-1.20;99.90
13682;DHT22;6913;49.892;7.936;2024-01-15T02:08:37;-1.20;99.90
13682;DHT22;6913;49.892;7.936;2024-01-15T02:11:05;-1.20;99.90
13682;DHT22;6913;49.892;7.936;2024-01-15T02:13:32;-1.20;99.90
13682;DHT22;6913;49.892;7.936;2024-01-15T02:15:59;-1.20;99.90
13682;DHT22;6913;49.892;7.936;2024-01-15T02:18:26;-1.20;99.90
13682;DHT22;6913;49.892;7.936;2024-01-15T02:20:52;-1.10;99.90
13682;DHT22;6913;49.892;7.936;2024-01-15T02:23:24;-1.10;99.90
13682;DHT22;6913;49.892;7.936;2024-01-15T02:25:50;-1.10;99.90
13682;DHT22;6913;49.892;7.936;2024-01-15T02:28:17;-1.10;99.90
13682;DHT22;6913;49.892;7.936;2024-01-15T02:30:44;-1.10;99.90
13682;DHT22;6913;49.892;7.936;2024-01-15T02:33:11;-1.10;99.90
13682;DHT22;6913;49.892;7.936;2024-01-15T02:35:38;-1.10;99.90
13682;DHT22;6913;49.892;7.936;2024-01-15T02:38:05;-1.10;99.90
13682;DHT22;6913;49.892;7.936;2024-01-15T02:40:34;-1.10;99.90
13682;DHT22;6913;49.892;7.936;2024-01-15T02:43:01;-1.10;99.90
13682;DHT22;6913;49.892;7.936;2024-01-15T02:45:28;-1.10;99.90
13682;DHT22;6913;49.892;7.936;2024-01-15T02:47:55;-1.10;99.90
13682;DHT22;6913;49.892;7.936;2024-01-15T02:50:22;-1.10;99.90
13682;DHT22;6913;49.892;7.936;2024-01-15T02:52:48;-1.10;99.90
13682;DHT22;6913;49.892;7.936;2024-01-15T02:55:15;-1.10;99.90
13682;DHT22;6913;49.892;7.936;2024-01-15T02:57:44;-1.00;99.90
13682;DHT22;6913;49.892;7.936;2024-01-15T03:00:11;-1.10;99.90
13682;DHT22;6913;49.892;7.936;2024-01-15T03:02:39;-1.00;99.90
13682;DHT22;6913;49.892;7.936;2024-01-15T03:05:06;-1.00;99.90
13682;DHT22;6913;49.892;7.936;2024-01-15T03:07:33;-1.00;99.90
13682;DHT22;6913;49.892;7.936;2024-01-15T03:10:00;-1.10;99.90
13682;DHT22;6913;49.892;7.936;2024-01-15T03:12:27;-1.10;99.90
13682;DHT22;6913;49.892;7.936;2024-01-15T03:14:55;-1.10;99.90
13682;DHT22;6913;49.892;7.936;2024-01-15T03:17:22;-1.10;99.90
13682;DHT22;6913;49.892;7.936;2024-01-15T03:19:49;-1.20;99.90
13682;DHT22;6913;49.892;7.936;2024-01-15T03:22:16;-1.20;99.90
13682;DHT22;6913;49.892;7.936;2024-01-15T03:24:43;-1.20;99.90
13682;DHT22;6913;49.892;7.936;2024-01-15T03:27:10;-1.20;99.90
13682;DHT22;6913;49.892;7.936;2024-01-15T03:29:37;-1.10;99.90
13682;DHT22;6913;49.892;7.936;2024-01-15T03:32:05;-1.10;99.90
13682;DHT22;6913;49.892;7.936;2024-01-15T03:34:32;-1.10;99.90
13682;DHT22;6913;49.892;7.936;2024-01-15T03:36:59;-1.10;99.90
13682;DHT22;6913;49.892;7.936;2024-01-15T03:39:25;-1.10;99.90
13682;DHT22;6913;49.892;7.936;2024-01-15T03:41:52;-1.10;99.90
13682;DHT22;6913;49.892;7.936;2024-01-15T03:44:19;-1.10;99.90
13682;DHT22;6913;49.892;7.936;2024-01-15T03:46:46;-1.10;99.90
13682;DHT22;6913;49.892;7.936;2024-01-15T03:49:14;-1.10;99.90
13682;DHT22;6913;49.892;7.936;2024-01-15T03:51:40;-1.10;99.90
13682;DHT22;6913;49.892;7.936;2024-01-15T03:54:07;-1.10;99.90
13682;DHT22;6913;49.892;7.936;2024-01-15T03:56:34;-1.10;99.90
13682;DHT22;6913;49.892;7.936;2024-01-15T03:59:01;-1.10;99.90
13682;DHT22;6913;49.892;7.936;2024-01-15T04:01:28;-1.10;99.90
13682;DHT22;6913;49.892;7.936;2024-01-15T04:03:55;-1.20;99.90
13682;DHT22;6913;49.892;7.936;2024-01-15T04:06:23;-1.10;99.90
13682;DHT22;6913;49.892;7.936;2024-01-15T04:08:50;-1.10;99.90
13682;DHT22;6913;49.892;7.936;2024-01-15T04:11:16;-1.00;99.90
13682;DHT22;6913;49.892;7.936;2024-01-15T04:13:43;-1.10;99.90
13682;DHT22;6913;49.892;7.936;2024-01-15T04:16:10;-1.00;99.90
13682;DHT22;6913;49.892;7.936;2024-01-15T04:18:37;-1.10;99.90
13682;DHT22;6913;49.892;7.936;2024-01-15T04:21:04;-1.10;99.90
13682;DHT22;6913;49.892;7.936;2024-01-15T04:23:33;-1.00;99.90
13682;DHT22;6913;49.892;7.936;2024-01-15T04:26:00;-1.00;99.90
13682;DHT22;6913;49.892;7.936;2024-01-15T04:28:27;-1.00;99.90
13682;DHT22;6913;49.892;7.936;2024-01-15T04:30:53;-1.00;99.90
13682;DHT22;6913;49.892;7.936;2024-01-15T04:33:20;-1.00;99.90
13682;DHT22;6913;49.892;7.936;2024-01-15T04:35:47;-1.00;99.90
13682;DHT22;6913;49.892;7.936;2024-01-15T04:38:14;-1.00;99.90
13682;DHT22;6913;49.892;7.936;2024-01-15T04:40:42;-1.10;99.90
13682;DHT22;6913;49.892;7.936;2024-01-15T04:43:09;-1.00;99.90
13682;DHT22;6913;49.892;7.936;2024-01-15T04:45:35;-1.00;99.90
13682;DHT22;6913;49.892;7.936;2024-01-15T04:48:02;-1.00;99.90
13682;DHT22;6913;49.892;7.936;2024-01-15T04:50:29;-0.90;99.90
13682;DHT22;6913;49.892;7.936;2024-01-15T04:52:56;-0.90;99.90
13682;DHT22;6913;49.892;7.936;2024-01-15T04:55:23;-0.90;99.90
13682;DHT22;6913;49.892;7.936;2024-01-15T04:57:51;-0.90;99.90
13682;DHT22;6913;49.892;7.936;2024-01-15T05:00:18;-0.90;99.90
13682;DHT22;6913;49.892;7.936;2024-01-15T05:02:45;-0.80;99.90
13682;DHT22;6913;49.892;7.936;2024-01-15T05:05:12;-0.90;99.90
13682;DHT22;6913;49.892;7.936;2024-01-15T05:07:39;-0.50;99.90
13682;DHT22;6913;49.892;7.936;2024-01-15T05:10:06;-1.30;99.90
13682;DHT22;6913;49.892;7.936;2024-01-15T05:12:33;-0.80;99.90
13682;DHT22;6913;49.892;7.936;2024-01-15T05:15:03;-0.90;99.90
13682;DHT22;6913;49.892;7.936;2024-01-15T05:17:30;-0.90;99.90
13682;DHT22;6913;49.892;7.936;2024-01-15T05:19:57;-0.90;99.90
13682;DHT22;6913;49.892;7.936;2024-01-15T05:22:24;-0.90;99.90
13682;DHT22;6913;49.892;7.936;2024-01-15T05:24:51;-0.90;99.90
13682;DHT22;6913;49.892;7.936;2024-01-15T05:27:17;-0.90;99.90
13682;DHT22;6913;49.892;7.936;2024-01-15T05:29:44;-0.90;99.90
13682;DHT22;6913;49.892;7.936;2024-01-15T05:32:13;-0.80;99.90
13682;DHT22;6913;49.892;7.936;2024-01-15T05:34:39;-0.80;99.90
13682;DHT22;6913;49.892;7.936;2024-01-15T05:37:06;-0.80;99.90
13682;DHT22;6913;49.892;7.936;2024-01-15T05:39:33;-0.80;99.90
13682;DHT22;6913;49.892;7.936;2024-01-15T05:41:59;-0.80;99.90
13682;DHT22;6913;49.892;7.936;2024-01-15T05:44:26;-0.70;99.90
13682;DHT22;6913;49.892;7.936;2024-01-15T05:46:53;-0.70;99.90
13682;DHT22;6913;49.892;7.936;2024-01-15T05:49:21;-0.70;99.90
13682;DHT22;6913;49.892;7.936;2024-01-15T05:51:48;-0.70;99.90
13682;DHT22;6913;49.892;7.936;2024-01-15T05:54:14;-0.80;99.90
13682;DHT22;6913;49.892;7.936;2024-01-15T05:56:41;-0.70;99.90
13682;DHT22;6913;49.892;7.936;2024-01-15T05:59:08;-0.70;99.90
13682;DHT22;6913;49.892;7.936;2024-01-15T06:01:35;-0.70;99.90
13682;DHT22;6913;49.892;7.936;2024-01-15T06:04:01;-0.70;99.90
13682;DHT22;6913;49.892;7.936;2024-01-15T06:06:30;-0.60;99.90
13682;DHT22;6913;49.892;7.936;2024-01-15T06:08:57;-0.60;99.90
13682;DHT22;6913;49.892;7.936;2024-01-15T06:11:30;-0.60;99.90
13682;DHT22;6913;49.892;7.936;2024-01-15T06:13:57;-0.60;99.90
13682;DHT22;6913;49.892;7.936;2024-01-15T06:16:24;-0.60;99.90
13682;DHT22;6913;49.892;7.936;2024-01-15T06:18:51;-0.60;99.90
13682;DHT22;6913;49.892;7.936;2024-01-15T06:21:17;-0.60;99.90
13682;DHT22;6913;49.892;7.936;2024-01-15T06:23:46;-0.60;99.90
13682;DHT22;6913;49.892;7.936;2024-01-15T06:26:12;-0.50;99.90
13682;DHT22;6913;49.892;7.936;2024-01-15T06:28:39;-0.50;99.90
13682;DHT22;6913;49.892;7.936;2024-01-15T06:31:06;-0.50;99.90
13682;DHT22;6913;49.892;7.936;2024-01-15T06:33:33;-0.50;99.90
13682;DHT22;6913;49.892;7.936;2024-01-15T06:36:00;-0.40;99.90
13682;DHT22;6913;49.892;7.936;2024-01-15T06:38:27;-0.40;99.90
13682;DHT22;6913;49.892;7.936;2024-01-15T06:40:55;-0.50;99.90
13682;DHT22;6913;49.892;7.936;2024-01-15T06:43:22;-0.50;99.90
13682;DHT22;6913;49.892;7.936;2024-01-15T06:45:49;-0.50;99.90
13682;DHT22;6913;49.892;7.936;2024-01-15T06:48:15;-0.50;99.90
13682;DHT22;6913;49.892;7.936;2024-01-15T06:50:42;-0.50;99.90
13682;DHT22;6913;49.892;7.936;2024-01-15T06:53:09;-0.40;99.90
13682;DHT22;6913;49.892;7.936;2024-01-15T06:55:37;-0.50;99.90
13682;DHT22;6913;49.892;7.936;2024-01-15T06:58:05;-0.40;99.90
13682;DHT22;6913;49.892;7.936;2024-01-15T07:00:32;-0.50;99.90
13682;DHT22;6913;49.892;7.936;2024-01-15T07:02:59;-0.40;99.90
13682;DHT22;6913;49.892;7.936;2024-01-15T07:05:26;-0.40;99.90
13682;DHT22;6913;49.892;7.936;2024-01-15T07:07:52;-0.40;99.90
13682;DHT22;6913;49.892;7.936;2024-01-15T07:10:19;-0.40;99.90
13682;DHT22;6913;49.892;7.936;2024-01-15T07:12:46;-0.40;99.90
13682;DHT22;6913;49.892;7.936;2024-01-15T07:15:14;-0.40;99.90
13682;DHT22;6913;49.892;7.936;2024-01-15T07:17:41;-0.50;99.90
13682;DHT22;6913;49.892;7.936;2024-01-15T07:20:09;-0.60;99.90
13682;DHT22;6913;49.892;7.936;2024-01-15T07:22:36;-0.50;99.90
13682;DHT22;6913;49.892;7.936;2024-01-15T07:25:04;-0.50;99.90
13682;DHT22;6913;49.892;7.936;2024-01-15T07:27:32;-0.40;99.90
13682;DHT22;6913;49.892;7.936;2024-01-15T07:29:59;-0.40;99.90
13682;DHT22;6913;49.892;7.936;2024-01-15T07:32:27;-0.40;99.90
13682;DHT22;6913;49.892;7.936;2024-01-15T07:34:53;-0.40;99.90
13682;DHT22;6913;49.892;7.936;2024-01-15T07:37:20;-0.40;99.90
13682;DHT22;6913;49.892;7.936;2024-01-15T07:39:48;-0.40;99.90
13682;DHT22;6913;49.892;7.936;2024-01-15T07:42:15;0.10;99.90
13682;DHT22;6913;49.892;7.936;2024-01-15T07:44:42;-0.30;99.90
13682;DHT22;6913;49.892;7.936;2024-01-15T07:47:09;-0.20;99.90
13682;DHT22;6913;49.892;7.936;2024-01-15T07:49:38;-0.30;99.90
13682;DHT22;6913;49.892;7.936;2024-01-15T07:52:05;-0.30;99.90
13682;DHT22;6913;49.892;7.936;2024-01-15T07:54:32;-0.30;99.90
13682;DHT22;6913;49.892;7.936;2024-01-15T07:57:00;0.10;99.90
13682;DHT22;6913;49.892;7.936;2024-01-15T07:59:28;-0.30;99.90
13682;DHT22;6913;49.892;7.936;2024-01-15T08:01:55;-0.30;99.90
13682;DHT22;6913;49.892;7.936;2024-01-15T08:04:22;-0.30;99.90
13682;DHT22;6913;49.892;7.936;2024-01-15T08:06:50;-0.30;99.90
13682;DHT22;6913;49.892;7.936;2024-01-15T08:09:17;-0.40;99.90
13682;DHT22;6913;49.892;7.936;2024-01-15T08:11:44;-0.40;99.90
13682;DHT22;6913;49.892;7.936;2024-01-15T08:14:11;-0.40;99.90
13682;DHT22;6913;49.892;7.936;2024-01-15T08:16:39;-0.30;99.90
13682;DHT22;6913;49.892;7.936;2024-01-15T08:19:06;-0.40;99.90
13682;DHT22;6913;49.892;7.936;2024-01-15T08:21:33;-0.30;99.90
13682;DHT22;6913;49.892;7.936;2024-01-15T08:24:02;-0.30;99.90
13682;DHT22;6913;49.892;7.936;2024-01-15T08:26:29;-0.30;99.90
13682;DHT22;6913;49.892;7.936;2024-01-15T08:28:56;-0.20;99.90
13682;DHT22;6913;49.892;7.936;2024-01-15T08:31:23;-0.10;99.90
13682;DHT22;6913;49.892;7.936;2024-01-15T08:33:49;-0.10;99.90
13682;DHT22;6913;49.892;7.936;2024-01-15T08:36:16;0.00;99.90
13682;DHT22;6913;49.892;7.936;2024-01-15T08:38:43;0.00;99.90
13682;DHT22;6913;49.892;7.936;2024-01-15T08:41:11;0.00;99.90
13682;DHT22;6913;49.892;7.936;2024-01-15T08:43:38;-0.10;99.90
13682;DHT22;6913;49.892;7.936;2024-01-15T08:46:05;0.00;99.90
13682;DHT22;6913;49.892;7.936;2024-01-15T08:48:32;0.00;99.90
13682;DHT22;6913;49.892;7.936;2024-01-15T08:50:59;0.00;99.90
13682;DHT22;6913;49.892;7.936;2024-01-15T08:53:26;0.00;99.90
13682;DHT22;6913;49.892;7.936;2024-01-15T08:55:53;0.00;99.90
13682;DHT22;6913;49.892;7.936;2024-01-15T08:58:23;0.00;99.90
13682;DHT22;6913;49.892;7.936;2024-01-15T09:00:50;0.10;99.90
13682;DHT22;6913;49.892;7.936;2024-01-15T09:03:17;0.10;99.90
13682;DHT22;6913;49.892;7.936;2024-01-15T09:05:44;0.10;99.90
13682;DHT22;6913;49.892;7.936;2024-01-15T09:08:11;0.10;99.90
13682;DHT22;6913;49.892;7.936;2024-01-15T09:10:38;0.10;99.90
13682;DHT22;6913;49.892;7.936;2024-01-15T09:13:06;0.10;99.90
13682;DHT22;6913;49.892;7.936;2024-01-15T09:15:35;0.10;99.90
13682;DHT22;6913;49.892;7.936;2024-01-15T09:18:01;0.10;99.90
13682;DHT22;6913;49.892;7.936;2024-01-15T09:20:28;0.10;99.90
13682;DHT22;6913;49.892;7.936;2024-01-15T09:22:55;0.20;99.90
13682;DHT22;6913;49.892;7.936;2024-01-15T09:25:22;0.10;99.90
13682;DHT22;6913;49.892;7.936;2024-01-15T09:27:48;0.20;99.90
13682;DHT22;6913;49.892;7.936;2024-01-15T09:30:15;0.20;99.90
13682;DHT22;6913;49.892;7.936;2024-01-15T09:32:43;0.30;99.90
13682;DHT22;6913;49.892;7.936;2024-01-15T09:35:10;0.30;99.90
13682;DHT22;6913;49.892;7.936;2024-01-15T09:37:38;0.30;99.90
13682;DHT22;6913;49.892;7.936;2024-01-15T09:40:06;0.30;99.90
13682;DHT22;6913;49.892;7.936;2024-01-15T09:42:35;0.30;99.90
13682;DHT22;6913;49.892;7.936;2024-01-15T09:45:02;0.30;99.90
13682;DHT22;6913;49.892;7.936;2024-01-15T09:47:30;0.30;99.90
13682;DHT22;6913;49.892;7.936;2024-01-15T09:49:58;0.40;99.90
13682;DHT22;6913;49.892;7.936;2024-01-15T09:52:25;0.30;99.90
13682;DHT22;6913;49.892;7.936;2024-01-15T09:54:53;0.30;99.90
13682;DHT22;6913;49.892;7.936;2024-01-15T09:57:20;0.40;99.90
13682;DHT22;6913;49.892;7.936;2024-01-15T09:59:47;0.40;99.90
13682;DHT22;6913;49.892;7.936;2024-01-15T10:02:15;0.40;99.90
13682;DHT22;6913;49.892;7.936;2024-01-15T10:04:44;0.40;99.90
13682;DHT22;6913;49.892;7.936;2024-01-15T10:07:14;0.50;99.90
13682;DHT22;6913;49.892;7.936;2024-01-15T10:09:42;0.50;99.90
13682;DHT22;6913;49.892;7.936;2024-01-15T10:12:09;0.50;99.90
13682;DHT22;6913;49.892;7.936;2024-01-15T10:14:36;0.50;99.90
13682;DHT22;6913;49.892;7.936;2024-01-15T10:17:12;0.60;99.90
13682;DHT22;6913;49.892;7.936;2024-01-15T10:19:40;0.60;99.90
13682;DHT22;6913;49.892;7.936;2024-01-15T10:22:08;0.60;99.90
13682;DHT22;6913;49.892;7.936;2024-01-15T10:24:37;0.70;99.90
13682;DHT22;6913;49.892;7.936;2024-01-15T10:27:07;0.80;99.90
13682;DHT22;6913;49.892;7.936;2024-01-15T10:29:35;0.90;99.90
13682;DHT22;6913;49.892;7.936;2024-01-15T10:32:02;1.00;99.90
13682;DHT22;6913;49.892;7.936;2024-01-15T10:34:30;0.90;99.90
13682;DHT22;6913;49.892;7.936;2024-01-15T10:36:57;1.10;99.90
13682;DHT22;6913;49.892;7.936;2024-01-15T10:39:24;0.90;99.90
13682;DHT22;6913;49.892;7.936;2024-01-15T10:41:52;0.90;99.90
13682;DHT22;6913;49.892;7.936;2024-01-15T10:44:19;0.90;99.90
13682;DHT22;6913;49.892;7.936;2024-01-15T10:46:46;1.00;99.90
13682;DHT22;6913;49.892;7.936;2024-01-15T10:49:14;1.00;99.90
13682;DHT22;6913;49.892;7.936;2024-01-15T10:51:42;1.00;99.90
13682;DHT22;6913;49.892;7.936;2024-01-15T10:54:09;1.00;99.90
13682;DHT22;6913;49.892;7.936;2024-01-15T10:56:38;1.00;99.90
13682;DHT22;6913;49.892;7.936;2024-01-15T10:59:07;1.10;99.90
13682;DHT22;6913;49.892;7.936;2024-01-15T11:01:36;1.10;99.90
13682;DHT22;6913;49.892;7.936;2024-01-15T11:04:04;1.10;99.90
13682;DHT22;6913;49.892;7.936;2024-01-15T11:06:42;1.20;99.90
13682;DHT22;6913;49.892;7.936;2024-01-15T11:09:09;1.20;99.90
13682;DHT22;6913;49.892;7.936;2024-01-15T11:11:36;1.30;99.90
13682;DHT22;6913;49.892;7.936;2024-01-15T11:14:03;1.30;99.90
13682;DHT22;6913;49.892;7.936;2024-01-15T11:16:53;1.40;99.90
13682;DHT22;6913;49.892;7.936;2024-01-15T11:19:21;1.60;99.90
13682;DHT22;6913;49.892;7.936;2024-01-15T11:21:48;1.70;99.90
13682;DHT22;6913;49.892;7.936;2024-01-15T11:24:33;1.70;99.90
13682;DHT22;6913;49.892;7.936;2024-01-15T11:27:01;1.70;99.90
13682;DHT22;6913;49.892;7.936;2024-01-15T11:29:32;1.70;99.90
13682;DHT22;6913;49.892;7.936;2024-01-15T11:32:03;1.80;99.90
13682;DHT22;6913;49.892;7.936;2024-01-15T11:34:53;1.90;99.90
13682;DHT22;6913;49.892;7.936;2024-01-15T11:37:24;1.90;99.90
13682;DHT22;6913;49.892;7.936;2024-01-15T11:39:52;1.90;99.90
13682;DHT22;6913;49.892;7.936;2024-01-15T11:42:20;1.90;99.90
13682;DHT22;6913;49.892;7.936;2024-01-15T11:44:48;1.80;99.90
13682;DHT22;6913;49.892;7.936;2024-01-15T11:47:46;1.80;99.90
13682;DHT22;6913;49.892;7.936;2024-01-15T11:50:21;1.80;99.90
13682;DHT22;6913;49.892;7.936;2024-01-15T11:52:55;1.80;99.90
13682;DHT22;6913;49.892;7.936;2024-01-15T11:55:27;1.80;99.90
13682;DHT22;6913;49.892;7.936;2024-01-15T11:57:55;1.80;99.90
13682;DHT22;6913;49.892;7.936;2024-01-15T12:00:23;1.80;99.90
13682;DHT22;6913;49.892;7.936;2024-01-15T12:02:52;1.80;99.90
13682;DHT22;6913;49.892;7.936;2024-01-15T12:05:19;1.90;99.90
13682;DHT22;6913;49.892;7.936;2024-01-15T12:07:48;2.00;99.90
13682;DHT22;6913;49.892;7.936;2024-01-15T12:10:16;2.10;99.90
13682;DHT22;6913;49.892;7.936;2024-01-15T12:12:53;2.30;97.40
13682;DHT22;6913;49.892;7.936;2024-01-15T12:15:21;2.40;92.90
13682;DHT22;6913;49.892;7.936;2024-01-15T12:17:48;2.40;77.50
13682;DHT22;6913;49.892;7.936;2024-01-15T12:20:17;2.50;83.20
13682;DHT22;6913;49.892;7.936;2024-01-15T12:22:44;2.50;89.40
13682;DHT22;6913;49.892;7.936;2024-01-15T12:25:11;2.60;78.70
13682;DHT22;6913;49.892;7.936;2024-01-15T12:27:38;2.70;79.40
13682;DHT22;6913;49.892;7.936;2024-01-15T12:30:06;2.70;61.80
13682;DHT22;6913;49.892;7.936;2024-01-15T12:32:34;2.70;65.10
13682;DHT22;6913;49.892;7.936;2024-01-15T12:35:01;2.60;70.00
13682;DHT22;6913;49.892;7.936;2024-01-15T12:37:30;2.60;70.10
13682;DHT22;6913;49.892;7.936;2024-01-15T12:39:58;2.60;65.30
13682;DHT22;6913;49.892;7.936;2024-01-15T12:42:25;2.60;81.40
13682;DHT22;6913;49.892;7.936;2024-01-15T12:44:52;2.60;73.80
13682;DHT22;6913;49.892;7.936;2024-01-15T12:47:21;2.60;69.40
13682;DHT22;6913;49.892;7.936;2024-01-15T12:49:48;2.60;76.80
13682;DHT22;6913;49.892;7.936;2024-01-15T12:52:19;2.70;67.80
13682;DHT22;6913;49.892;7.936;2024-01-15T12:54:48;2.70;75.40
13682;DHT22;6913;49.892;7.936;2024-01-15T12:57:15;2.70;69.90
13682;DHT22;6913;49.892;7.936;2024-01-15T12:59:42;2.70;71.30
13682;DHT22;6913;49.892;7.936;2024-01-15T13:02:09;2.70;61.80
13682;DHT22;6913;49.892;7.936;2024-01-15T13:04:37;2.80;68.80
13682;DHT22;6913;49.892;7.936;2024-01-15T13:07:04;2.70;63.40
13682;DHT22;6913;49.892;7.936;2024-01-15T13:09:31;2.40;64.30
13682;DHT22;6913;49.892;7.936;2024-01-15T13:11:59;2.80;53.60
13682;DHT22;6913;49.892;7.936;2024-01-15T13:14:26;2.80;51.10
13682;DHT22;6913;49.892;7.936;2024-01-15T13:16:53;2.90;49.30
13682;DHT22;6913;49.892;7.936;2024-01-15T13:19:20;3.00;50.70
13682;DHT22;6913;49.892;7.936;2024-01-15T13:21:48;3.10;55.70
13682;DHT22;6913;49.892;7.936;2024-01-15T13:24:15;3.30;47.40
13682;DHT22;6913;49.892;7.936;2024-01-15T13:26:42;3.40;30.80
13682;DHT22;6913;49.892;7.936;2024-01-15T13:29:10;3.40;32.30
13682;DHT22;6913;49.892;7.936;2024-01-15T13:31:37;3.50;35.30
13682;DHT22;6913;49.892;7.936;2024-01-15T13:34:04;3.50;14.50
13682;DHT22;6913;49.892;7.936;2024-01-15T13:36:32;3.60;30.30
13682;DHT22;6913;49.892;7.936;2024-01-15T13:38:59;3.70;2.60
13682;DHT22;6913;49.892;7.936;2024-01-15T13:41:26;3.50;1.00
13682;DHT22;6913;49.892;7.936;2024-01-15T13:43:55;3.60;9.50
13682;DHT22;6913;49.892;7.936;2024-01-15T13:46:25;3.60;8.10
13682;DHT22;6913;49.892;7.936;2024-01-15T13:48:53;3.60;1.00
13682;DHT22;6913;49.892;7.936;2024-01-15T13:51:22;3.80;1.30
13682;DHT22;6913;49.892;7.936;2024-01-15T13:53:49;3.60;1.00
13682;DHT22;6913;49.892;7.936;2024-01-15T13:56:16;3.50;1.00
13682;DHT22;6913;49.892;7.936;2024-01-15T13:58:43;3.50;1.00
13682;DHT22;6913;49.892;7.936;2024-01-15T14:01:10;3.50;1.00
13682;DHT22;6913;49.892;7.936;2024-01-15T14:03:38;3.40;1.00
13682;DHT22;6913;49.892;7.936;2024-01-15T14:06:05;3.30;1.00
13682;DHT22;6913;49.892;7.936;2024-01-15T14:08:34;3.40;5.20
13682;DHT22;6913;49.892;7.936;2024-01-15T14:11:02;3.40;1.00
13682;DHT22;6913;49.892;7.936;2024-01-15T14:13:29;3.40;1.00
13682;DHT22;6913;49.892;7.936;2024-01-15T14:15:56;3.50;1.00
13682;DHT22;6913;49.892;7.936;2024-01-15T14:18:22;3.60;1.00
13682;DHT22;6913;49.892;7.936;2024-01-15T14:20:50;3.60;1.00
13682;DHT22;6913;49.892;7.936;2024-01-15T14:23:19;3.60;1.00
13682;DHT22;6913;49.892;7.936;2024-01-15T14:25:45;3.60;1.00
13682;DHT22;6913;49.892;7.936;2024-01-15T14:28:12;3.50;1.00
13682;DHT22;6913;49.892;7.936;2024-01-15T14:30:39;3.40;1.00
13682;DHT22;6913;49.892;7.936;2024-01-15T14:33:06;3.30;1.00
13682;DHT22;6913;49.892;7.936;2024-01-15T14:35:32;3.10;3.20
13682;DHT22;6913;49.892;7.936;2024-01-15T14:38:01;3.10;3.10
13682;DHT22;6913;49.892;7.936;2024-01-15T14:40:28;3.00;12.40
13682;DHT22;6913;49.892;7.936;2024-01-15T14:42:55;3.00;9.00
13682;DHT22;6913;49.892;7.936;2024-01-15T14:45:21;3.00;10.30
13682;DHT22;6913;49.892;7.936;2024-01-15T14:47:48;3.00;5.90
13682;DHT22;6913;49.892;7.936;2024-01-15T14:50:15;2.90;15.20
13682;DHT22;6913;49.892;7.936;2024-01-15T14:52:42;2.90;1.00
13682;DHT22;6913;49.892;7.936;2024-01-15T14:55:11;2.90;1.00
13682;DHT22;6913;49.892;7.936;2024-01-15T14:57:38;2.80;1.00
13682;DHT22;6913;49.892;7.936;2024-01-15T15:00:06;2.70;1.00
13682;DHT22;6913;49.892;7.936;2024-01-15T15:02:35;2.60;1.00
13682;DHT22;6913;49.892;7.936;2024-01-15T15:05:02;2.60;1.00
13682;DHT22;6913;49.892;7.936;2024-01-15T15:07:28;2.50;1.00
13682;DHT22;6913;49.892;7.936;2024-01-15T15:09:55;2.30;1.00
13682;DHT22;6913;49.892;7.936;2024-01-15T15:12:23;2.30;1.00
13682;DHT22;6913;49.892;7.936;2024-01-15T15:14:50;2.20;1.00
13682;DHT22;6913;49.892;7.936;2024-01-15T15:17:17;2.10;1.00
13682;DHT22;6913;49.892;7.936;2024-01-15T15:19:43;2.10;1.00
13682;DHT22;6913;49.892;7.936;2024-01-15T15:22:10;2.20;1.00
13682;DHT22;6913;49.892;7.936;2024-01-15T15:24:37;2.10;1.00
13682;DHT22;6913;49.892;7.936;2024-01-15T15:27:04;2.50;1.00
13682;DHT22;6913;49.892;7.936;2024-01-15T15:29:33;2.00;1.00
13682;DHT22;6913;49.892;7.936;2024-01-15T15:32:00;2.00;1.00
13682;DHT22;6913;49.892;7.936;2024-01-15T15:34:27;2.00;1.00
13682;DHT22;6913;49.892;7.936;2024-01-15T15:36:54;2.00;1.00
13682;DHT22;6913;49.892;7.936;2024-01-15T15:39:20;2.00;1.00
13682;DHT22;6913;49.892;7.936;2024-01-15T15:41:49;2.10;1.00
13682;DHT22;6913;49.892;7.936;2024-01-15T15:44:16;2.00;1.00
13682;DHT22;6913;49.892;7.936;2024-01-15T15:46:44;1.90;1.00
13682;DHT22;6913;49.892;7.936;2024-01-15T15:49:11;1.90;1.00
13682;DHT22;6913;49.892;7.936;2024-01-15T15:51:37;1.90;1.00
13682;DHT22;6913;49.892;7.936;2024-01-15T15:54:06;1.90;1.00
13682;DHT22;6913;49.892;7.936;2024-01-15T15:56:33;1.80;1.00